Time;durP1;ratioP1;P1;durP2;ratioP2;P2;SDS_P1;SDS_P2;PMS_P1;PMS_P2;Temp;Humidity;BMP_temperature;BMP_pressure;BME280_temperature;BME280_humidity;BME280_pressure;Samples;Min_cycle;Max_cycle;Signal;HPM_P1;HPM_P2
2022/12/21 00:00:23;;;;;;;79.53;51.40;;;;;;;-141.22;100.00;65034.22;4917984;29;20437;-47
2022/12/21 00:02:51;;;;;;;121.43;56.47;;;;;;;-141.22;100.00;65034.22;4917808;29;20469;-47
2022/12/21 00:05:19;;;;;;;106.30;51.07;;;;;;;-141.22;100.00;65034.22;4917525;29;20437;-47
2022/12/21 00:07:48;;;;;;;164.03;60.00;;;;;;;-141.22;100.00;65034.22;4917165;29;20477;-49
2022/12/21 00:10:15;;;;;;;116.83;54.63;;;;;;;-141.22;100.00;65034.22;4917604;29;20474;-48
2022/12/21 00:12:43;;;;;;;86.07;50.53;;;;;;;-141.22;100.00;65034.22;4917652;29;20473;-48
2022/12/21 00:15:11;;;;;;;95.50;53.50;;;;;;;-141.22;100.00;65034.22;4917914;29;20864;-51
2022/12/21 00:17:38;;;;;;;85.07;51.03;;;;;;;-141.22;100.00;65034.22;4917140;29;20469;-46
2022/12/21 00:20:12;;;;;;;152.90;61.23;;;;;;;-141.22;100.00;65034.22;4917691;29;20475;-49
2022/12/21 00:22:40;;;;;;;156.67;60.63;;;;;;;-141.22;100.00;65034.22;4917365;29;20461;-49
2022/12/21 00:25:09;;;;;;;114.80;55.83;;;;;;;-141.22;100.00;65034.22;4917257;29;20437;-48
2022/12/21 00:27:37;;;;;;;147.00;60.03;;;;;;;-141.22;100.00;65034.22;4917137;29;20461;-48
2022/12/21 00:30:06;;;;;;;265.00;73.60;;;;;;;-141.22;100.00;65034.22;4917549;29;20945;-46
2022/12/21 00:32:33;;;;;;;87.90;51.87;;;;;;;-141.22;100.00;65034.22;4917204;29;20461;-49
2022/12/21 00:35:01;;;;;;;178.03;60.30;;;;;;;-141.22;100.00;65034.22;4917545;29;20500;-48
2022/12/21 00:37:28;;;;;;;71.57;50.23;;;;;;;-141.22;100.00;65034.22;4916884;29;20525;-47
2022/12/21 00:39:56;;;;;;;401.57;81.60;;;;;;;-141.22;100.00;65034.22;4917067;29;20905;-51
2022/12/21 00:42:25;;;;;;;504.57;95.37;;;;;;;-141.22;100.00;65034.22;4916879;29;20466;-47
2022/12/21 00:44:53;;;;;;;287.70;73.50;;;;;;;-141.22;100.00;65034.22;4916713;29;20442;-48
2022/12/21 00:47:20;;;;;;;288.03;78.37;;;;;;;-141.22;100.00;65034.22;4916512;29;20520;-48
2022/12/21 00:49:48;;;;;;;490.90;96.07;;;;;;;-141.22;100.00;65034.22;4916994;29;20442;-45
2022/12/21 00:52:16;;;;;;;428.43;84.50;;;;;;;-141.22;100.00;65034.22;4916096;29;20825;-48
2022/12/21 00:54:43;;;;;;;194.47;60.10;;;;;;;-141.22;100.00;65034.22;4916991;29;20442;-48
2022/12/21 00:57:11;;;;;;;212.63;57.23;;;;;;;-141.22;100.00;65034.22;4916410;29;20469;-45
2022/12/21 00:59:40;;;;;;;146.17;56.40;;;;;;;-141.22;100.00;65034.22;4916692;29;20437;-45
2022/12/21 01:02:08;;;;;;;167.77;60.20;;;;;;;-141.22;100.00;65034.22;4916637;29;20464;-50
2022/12/21 01:04:36;;;;;;;152.47;59.57;;;;;;;-141.22;100.00;65034.22;4916481;29;20442;-47
2022/12/21 01:07:03;;;;;;;346.30;73.00;;;;;;;-141.22;100.00;65034.22;4916440;29;20470;-50
2022/12/21 01:09:31;;;;;;;196.57;60.13;;;;;;;-141.22;100.00;65034.22;4916732;29;20441;-48
2022/12/21 01:11:59;;;;;;;282.83;72.53;;;;;;;-141.22;100.00;65034.22;4916263;29;20913;-49
2022/12/21 01:14:26;;;;;;;167.50;58.53;;;;;;;-141.22;100.00;65034.22;4915828;29;20821;-50
2022/12/21 01:16:55;;;;;;;226.00;66.27;;;;;;;-141.22;100.00;65034.22;4915851;29;20822;-46
2022/12/21 01:19:23;;;;;;;84.00;52.30;;;;;;;-141.22;100.00;65034.22;4916495;29;20528;-48
2022/12/21 01:21:50;;;;;;;354.87;76.07;;;;;;;-141.22;100.00;65034.22;4916588;29;20489;-46
2022/12/21 01:24:18;;;;;;;142.50;58.27;;;;;;;-141.22;100.00;65034.22;4916159;29;20425;-48
2022/12/21 01:26:45;;;;;;;163.83;61.87;;;;;;;-141.22;100.00;65034.22;4915385;29;20985;-47
2022/12/21 01:29:14;;;;;;;146.07;57.73;;;;;;;-141.22;100.00;65034.22;4916516;29;20437;-50
2022/12/21 01:31:42;;;;;;;464.47;87.53;;;;;;;-141.22;100.00;65034.22;4916294;29;20444;-47
2022/12/21 01:34:11;;;;;;;143.43;56.37;;;;;;;-141.22;100.00;65034.22;4916113;29;20497;-50
2022/12/21 01:36:38;;;;;;;113.50;52.80;;;;;;;-141.22;100.00;65034.22;4915167;29;20441;-48
2022/12/21 01:39:06;;;;;;;350.00;74.37;;;;;;;-141.22;100.00;65034.22;4915710;29;20445;-50
2022/12/21 01:41:34;;;;;;;415.40;78.07;;;;;;;-141.22;100.00;65034.22;4915699;29;20438;-46
2022/12/21 01:44:04;;;;;;;145.60;57.37;;;;;;;-141.22;100.00;65034.22;4915260;29;20457;-48
2022/12/21 01:46:37;;;;;;;211.67;64.07;;;;;;;-141.22;100.00;65034.22;4915381;29;20517;-46
2022/12/21 01:49:13;;;;;;;202.90;58.37;;;;;;;-141.22;100.00;65034.22;4915765;29;20445;-50
2022/12/21 01:51:44;;;;;;;147.00;54.17;;;;;;;-141.22;100.00;65034.22;4915376;29;20437;-49
2022/12/21 01:54:15;;;;;;;346.93;70.40;;;;;;;-141.22;100.00;65034.22;4915296;29;20952;-48
2022/12/21 01:56:46;;;;;;;415.67;78.63;;;;;;;-141.22;100.00;65034.22;4915370;29;20438;-46
2022/12/21 01:59:19;;;;;;;257.50;64.20;;;;;;;-141.22;100.00;65034.22;4915453;29;20433;-48
2022/12/21 02:01:47;;;;;;;96.87;49.60;;;;;;;-141.22;100.00;65034.22;4915182;29;20445;-49
2022/12/21 02:04:16;;;;;;;117.47;50.40;;;;;;;-141.22;100.00;65034.22;4914809;29;21064;-47
2022/12/21 02:06:48;;;;;;;275.43;60.27;;;;;;;-141.22;100.00;65034.22;4915115;29;20445;-46
2022/12/21 02:09:17;;;;;;;232.43;59.03;;;;;;;-141.22;100.00;65034.22;4915676;29;20438;-48
2022/12/21 02:11:46;;;;;;;324.43;65.17;;;;;;;-141.22;100.00;65034.22;4915469;29;20470;-48
2022/12/21 02:14:14;;;;;;;320.57;62.57;;;;;;;-141.22;100.00;65034.22;4914736;29;20899;-46
2022/12/21 02:16:58;;;;;;;552.40;90.03;;;;;;;-141.22;100.00;65034.22;4914642;29;20775;-47
2022/12/21 02:20:01;;;;;;;276.13;63.83;;;;;;;-141.22;100.00;65034.22;4915376;29;20437;-50
2022/12/21 02:22:45;;;;;;;159.57;51.50;;;;;;;-141.22;100.00;65034.22;4915404;29;20464;-46
2022/12/21 02:25:35;;;;;;;309.60;67.43;;;;;;;-141.22;100.00;65034.22;4914856;29;20430;-48
2022/12/21 02:28:39;;;;;;;338.83;70.60;;;;;;;-141.22;100.00;65034.22;4915019;29;20551;-46
2022/12/21 02:31:23;;;;;;;108.40;49.10;;;;;;;-141.22;100.00;65034.22;4915269;29;20443;-46
2022/12/21 02:34:06;;;;;;;226.83;59.20;;;;;;;-141.22;100.00;65034.22;4915049;29;20457;-46
2022/12/21 02:36:43;;;;;;;375.90;75.13;;;;;;;-141.22;100.00;65034.22;4914751;29;20973;-46
2022/12/21 02:39:18;;;;;;;125.37;51.57;;;;;;;-141.22;100.00;65034.22;4908422;29;20429;-47
2022/12/21 02:41:57;;;;;;;121.67;51.60;;;;;;;-141.22;100.00;65034.22;4914811;29;20496;-48
2022/12/21 02:44:36;;;;;;;206.53;61.80;;;;;;;-141.22;100.00;65034.22;4914926;29;20433;-47
2022/12/21 02:47:10;;;;;;;249.77;64.40;;;;;;;-141.22;100.00;65034.22;4914147;29;20469;-49
2022/12/21 02:49:46;;;;;;;112.90;50.40;;;;;;;-141.22;100.00;65034.22;4914743;29;20814;-45
2022/12/21 02:52:18;;;;;;;230.97;58.33;;;;;;;-141.22;100.00;65034.22;4914746;29;20457;-46
2022/12/21 02:54:46;;;;;;;86.13;50.07;;;;;;;-141.22;100.00;65034.22;4914727;29;20489;-45
2022/12/21 02:57:14;;;;;;;354.70;74.20;;;;;;;-141.22;100.00;65034.22;4914665;29;20527;-50
2022/12/21 02:59:46;;;;;;;243.80;63.10;;;;;;;-141.22;100.00;65034.22;4914998;29;20806;-48
2022/12/21 03:02:45;;;;;;;351.17;79.43;;;;;;;-141.22;100.00;65034.22;4914792;29;20462;-45
2022/12/21 03:05:37;;;;;;;111.83;51.07;;;;;;;-141.22;100.00;65034.22;4914258;29;20441;-47
2022/12/21 03:08:16;;;;;;;464.93;87.63;;;;;;;-141.22;100.00;65034.22;4914306;29;20481;-47
2022/12/21 03:10:57;;;;;;;461.23;85.83;;;;;;;-141.22;100.00;65034.22;4914666;29;20785;-49
2022/12/21 03:13:35;;;;;;;138.60;54.60;;;;;;;-141.22;100.00;65034.22;4914586;29;20504;-48
2022/12/21 03:16:14;;;;;;;222.97;62.20;;;;;;;-141.22;100.00;65034.22;4915710;29;20441;-46
2022/12/21 03:18:55;;;;;;;225.73;60.53;;;;;;;-141.22;100.00;65034.22;4918341;29;20552;-45
2022/12/21 03:21:30;;;;;;;363.80;77.93;;;;;;;-141.22;100.00;65034.22;4918555;29;20465;-46
2022/12/21 03:24:05;;;;;;;140.47;51.33;;;;;;;-141.22;100.00;65034.22;4918382;29;20857;-47
2022/12/21 03:26:39;;;;;;;199.80;56.27;;;;;;;-141.22;100.00;65034.22;4918150;29;20432;-47
2022/12/21 03:29:09;;;;;;;432.57;76.47;;;;;;;-141.22;100.00;65034.22;4918610;29;20473;-46
2022/12/21 03:31:41;;;;;;;278.37;64.13;;;;;;;-141.22;100.00;65034.22;4918247;29;20437;-49
2022/12/21 03:34:16;;;;;;;388.83;72.23;;;;;;;-141.22;100.00;65034.22;4918267;29;20465;-49
2022/12/21 03:36:49;;;;;;;473.47;90.40;;;;;;;-141.22;100.00;65034.22;4917737;29;20436;-51
2022/12/21 03:39:21;;;;;;;217.20;56.67;;;;;;;-141.22;100.00;65034.22;4917599;29;20442;-48
2022/12/21 03:41:53;;;;;;;200.40;55.53;;;;;;;-141.22;100.00;65034.22;4917961;29;20436;-47
2022/12/21 03:44:28;;;;;;;313.87;68.13;;;;;;;-141.22;100.00;65034.22;4917729;29;20441;-50
2022/12/21 03:46:58;;;;;;;216.17;52.07;;;;;;;-141.22;100.00;65034.22;4917670;29;20508;-51
2022/12/21 03:49:31;;;;;;;154.60;51.13;;;;;;;-141.22;100.00;65034.22;4917734;29;20484;-48
2022/12/21 03:52:04;;;;;;;123.43;46.53;;;;;;;-141.22;100.00;65034.22;4917813;29;20438;-49
2022/12/21 03:54:39;;;;;;;211.93;56.57;;;;;;;-141.22;100.00;65034.22;4917659;29;20444;-47
2022/12/21 03:57:08;;;;;;;300.97;69.40;;;;;;;-141.22;100.00;65034.22;4917566;29;20520;-46
2022/12/21 03:59:39;;;;;;;358.50;70.70;;;;;;;-141.22;100.00;65034.22;4918177;29;20441;-48
2022/12/21 04:02:12;;;;;;;194.57;51.30;;;;;;;-141.22;100.00;65034.22;4918045;29;20859;-48
2022/12/21 04:04:48;;;;;;;179.23;49.97;;;;;;;-141.22;100.00;65034.22;4917779;29;20477;-48
2022/12/21 04:07:23;;;;;;;184.23;49.63;;;;;;;-141.22;100.00;65034.22;4917342;29;20464;-47
2022/12/21 04:09:56;;;;;;;148.97;46.67;;;;;;;-141.22;100.00;65034.22;4918172;29;20487;-46
2022/12/21 04:12:40;;;;;;;137.83;45.20;;;;;;;-141.22;100.00;65034.22;4917950;29;20473;-49
2022/12/21 04:15:10;;;;;;;146.53;43.57;;;;;;;-141.22;100.00;65034.22;4917646;29;20941;-51
2022/12/21 04:17:39;;;;;;;92.63;38.57;;;;;;;-141.22;100.00;65034.22;4917047;29;20718;-47
2022/12/21 04:20:11;;;;;;;191.27;46.80;;;;;;;-141.22;100.00;65034.22;4917700;29;20448;-48
2022/12/21 04:28:15;;;;;;;92.20;37.30;;;;;;;-141.22;100.00;65034.22;4916878;29;21020;-47
2022/12/21 04:31:03;;;;;;;106.43;38.83;;;;;;;-141.22;100.00;65034.22;4917303;29;20445;-48
2022/12/21 04:33:30;;;;;;;148.43;40.13;;;;;;;-141.22;100.00;65034.22;4917188;29;20475;-47
2022/12/21 04:38:45;;;;;;;153.57;41.50;;;;;;;-141.22;100.00;65034.22;4916348;29;20561;-47
2022/12/21 04:41:13;;;;;;;124.60;39.60;;;;;;;-141.22;100.00;65034.22;4917075;29;20445;-50
2022/12/21 04:43:42;;;;;;;204.97;43.43;;;;;;;-141.22;100.00;65034.22;4916794;29;20489;-48
2022/12/21 04:46:12;;;;;;;225.37;41.97;;;;;;;-141.22;100.00;65034.22;4915226;29;21153;-51
2022/12/21 04:48:40;;;;;;;169.80;41.57;;;;;;;-141.22;100.00;65034.22;4916017;29;20492;-50
2022/12/21 04:51:11;;;;;;;345.00;49.53;;;;;;;-141.22;100.00;65034.22;4916836;29;20442;-49
2022/12/21 04:53:39;;;;;;;223.37;43.40;;;;;;;-141.22;100.00;65034.22;4916455;29;21003;-47
2022/12/21 04:56:07;;;;;;;137.80;38.13;;;;;;;-141.22;100.00;65034.22;4916479;29;20488;-47
2022/12/21 04:58:35;;;;;;;65.23;34.90;;;;;;;-141.22;100.00;65034.22;4916249;29;20461;-46
2022/12/21 05:01:07;;;;;;;71.47;35.33;;;;;;;-141.22;100.00;65034.22;4916787;29;20444;-47
2022/12/21 05:03:35;;;;;;;112.77;39.97;;;;;;;-141.22;100.00;65034.22;4916155;29;20521;-47
2022/12/21 05:06:03;;;;;;;85.90;37.10;;;;;;;-141.22;100.00;65034.22;4916455;29;20566;-46
2022/12/21 05:08:32;;;;;;;113.60;36.97;;;;;;;-141.22;100.00;65034.22;4915957;29;20484;-45
2022/12/21 05:11:07;;;;;;;51.20;36.23;;;;;;;-141.22;100.00;65034.22;4916570;29;20850;-49
2022/12/21 05:13:35;;;;;;;74.27;36.53;;;;;;;-141.22;100.00;65034.22;4915751;29;20476;-46
2022/12/21 05:16:03;;;;;;;133.93;43.77;;;;;;;-141.22;100.00;65034.22;4915971;29;20895;-45
2022/12/21 05:18:31;;;;;;;85.63;35.47;;;;;;;-141.22;100.00;65034.22;4915795;29;20528;-47
2022/12/21 05:20:59;;;;;;;53.97;35.17;;;;;;;-141.22;100.00;65034.22;4916115;29;20437;-46
2022/12/21 05:23:26;;;;;;;80.73;38.20;;;;;;;-141.22;100.00;65034.22;4916591;29;21019;-50
2022/12/21 05:25:55;;;;;;;86.37;38.10;;;;;;;-141.22;100.00;65034.22;4915771;29;20442;-48
2022/12/21 05:28:23;;;;;;;60.13;35.33;;;;;;;-141.22;100.00;65034.22;4915224;29;20939;-47
2022/12/21 05:30:51;;;;;;;47.30;36.70;;;;;;;-141.22;100.00;65034.22;4916116;29;20445;-50
2022/12/21 05:33:18;;;;;;;58.97;36.40;;;;;;;-141.22;100.00;65034.22;4915913;29;20517;-48
2022/12/21 05:35:46;;;;;;;76.87;38.23;;;;;;;-141.22;100.00;65034.22;4915628;29;20450;-54
2022/12/21 05:38:14;;;;;;;72.87;37.80;;;;;;;-141.22;100.00;65034.22;4915053;29;20511;-48
2022/12/21 05:40:46;;;;;;;46.97;35.00;;;;;;;-141.22;100.00;65034.22;4915357;29;20442;-48
2022/12/21 05:43:15;;;;;;;39.40;32.97;;;;;;;-141.22;100.00;65034.22;4915564;29;20457;-51
2022/12/21 05:45:44;;;;;;;84.47;40.77;;;;;;;-141.22;100.00;65034.22;4915316;29;20818;-46
2022/12/21 05:48:12;;;;;;;88.80;38.70;;;;;;;-141.22;100.00;65034.22;4914914;29;20504;-47
2022/12/21 05:50:39;;;;;;;37.83;33.97;;;;;;;-141.22;100.00;65034.22;4915232;29;21031;-49
2022/12/21 05:53:08;;;;;;;54.00;36.47;;;;;;;-141.22;100.00;65034.22;4915622;29;20862;-50
2022/12/21 05:55:44;;;;;;;131.70;45.30;;;;;;;-141.22;100.00;65034.22;4915185;29;20430;-52
2022/12/21 05:58:12;;;;;;;56.23;37.83;;;;;;;-141.22;100.00;65034.22;4915050;29;21150;-46
2022/12/21 06:00:42;;;;;;;66.53;36.13;;;;;;;-141.22;100.00;65034.22;4915563;29;20438;-48
2022/12/21 06:03:09;;;;;;;45.43;34.83;;;;;;;-141.22;100.00;65034.22;4915530;29;20458;-45
2022/12/21 06:05:38;;;;;;;50.17;35.50;;;;;;;-141.22;100.00;65034.22;4915439;29;20444;-49
2022/12/21 06:08:06;;;;;;;97.10;37.20;;;;;;;-141.22;100.00;65034.22;4915092;29;20476;-50
2022/12/21 06:10:35;;;;;;;41.53;33.60;;;;;;;-141.22;100.00;65034.22;4915314;29;20504;-50
2022/12/21 06:13:03;;;;;;;56.30;34.00;;;;;;;-141.22;100.00;65034.22;4914993;29;20465;-51
2022/12/21 06:15:31;;;;;;;57.27;33.20;;;;;;;-141.22;100.00;65034.22;4915129;29;20442;-46
2022/12/21 06:18:00;;;;;;;97.40;38.97;;;;;;;-141.22;100.00;65034.22;4914741;29;20524;-48
2022/12/21 06:20:32;;;;;;;42.03;34.17;;;;;;;-141.22;100.00;65034.22;4915266;29;20490;-48
2022/12/21 06:23:00;;;;;;;136.53;42.40;;;;;;;-141.22;100.00;65034.22;4915634;29;20454;-48
2022/12/21 06:25:28;;;;;;;66.33;36.40;;;;;;;-141.22;100.00;65034.22;4915057;29;20538;-47
2022/12/21 06:27:56;;;;;;;53.70;33.73;;;;;;;-141.22;100.00;65034.22;4914639;29;20476;-49
2022/12/21 06:30:24;;;;;;;96.83;38.77;;;;;;;-141.22;100.00;65034.22;4915185;29;20481;-49
2022/12/21 06:32:52;;;;;;;60.70;37.20;;;;;;;-141.22;100.00;65034.22;4915244;29;20462;-49
2022/12/21 06:35:20;;;;;;;63.43;35.47;;;;;;;-141.22;100.00;65034.22;4914267;29;20441;-49
2022/12/21 06:37:49;;;;;;;128.83;40.53;;;;;;;-141.22;100.00;65034.22;4914371;29;20513;-49
2022/12/21 06:40:17;;;;;;;75.77;35.27;;;;;;;-141.22;100.00;65034.22;4914409;29;20430;-49
2022/12/21 06:42:44;;;;;;;91.70;35.17;;;;;;;-141.22;100.00;65034.22;4914238;29;20871;-47
2022/12/21 06:45:12;;;;;;;96.43;38.03;;;;;;;-141.22;100.00;65034.22;4913939;29;21024;-46
2022/12/21 06:47:40;;;;;;;81.70;36.23;;;;;;;-141.22;100.00;65034.22;4913651;29;20484;-52
2022/12/21 06:50:09;;;;;;;49.70;31.70;;;;;;;-141.22;100.00;65034.22;4913609;29;20482;-47
2022/12/21 06:52:38;;;;;;;40.37;31.43;;;;;;;-141.22;100.00;65034.22;4913896;29;20500;-48
2022/12/21 06:55:06;;;;;;;92.90;37.27;;;;;;;-141.22;100.00;65034.22;4914374;29;20829;-45
2022/12/21 06:57:34;;;;;;;183.83;46.27;;;;;;;-141.22;100.00;65034.22;4914143;29;20528;-46
2022/12/21 07:00:02;;;;;;;59.93;35.40;;;;;;;-141.22;100.00;65034.22;4913765;29;20484;-46
2022/12/21 07:02:30;;;;;;;93.00;37.43;;;;;;;-141.22;100.00;65034.22;4914087;29;20454;-47
2022/12/21 07:04:58;;;;;;;53.37;35.20;;;;;;;-141.22;100.00;65034.22;4913944;29;21016;-47
2022/12/21 07:07:25;;;;;;;73.43;36.03;;;;;;;-141.22;100.00;65034.22;4913525;29;20544;-48
2022/12/21 07:09:54;;;;;;;36.70;32.17;;;;;;;-141.22;100.00;65034.22;4914156;29;20477;-48
2022/12/21 07:12:22;;;;;;;69.77;36.00;;;;;;;-141.22;100.00;65034.22;4914128;29;20501;-48
2022/12/21 07:14:50;;;;;;;160.50;42.87;;;;;;;-141.22;100.00;65034.22;4913462;29;20445;-49
2022/12/21 07:17:18;;;;;;;106.03;40.80;;;;;;;-141.22;100.00;65034.22;4913531;29;20477;-48
2022/12/21 07:19:49;;;;;;;196.87;44.07;;;;;;;-141.22;100.00;65034.22;4912996;29;20433;-49
2022/12/21 07:22:17;;;;;;;75.83;38.37;;;;;;;-141.22;100.00;65034.22;4913372;29;20464;-49
2022/12/21 07:24:44;;;;;;;69.97;36.40;;;;;;;-141.22;100.00;65034.22;4913408;29;20437;-48
2022/12/21 07:27:13;;;;;;;45.57;33.47;;;;;;;-141.22;100.00;65034.22;4912289;29;20465;-49
2022/12/21 07:29:41;;;;;;;92.60;37.60;;;;;;;-141.22;100.00;65034.22;4913129;29;20572;-49
2022/12/21 07:32:09;;;;;;;48.53;33.07;;;;;;;-141.22;100.00;65034.22;4912335;29;20517;-49
2022/12/21 07:34:37;;;;;;;63.77;33.17;;;;;;;-141.22;100.00;65034.22;4912621;29;20444;-47
2022/12/21 07:37:05;;;;;;;52.93;32.57;;;;;;;-141.22;100.00;65034.22;4913367;29;21312;-50
2022/12/21 07:39:33;;;;;;;34.47;30.97;;;;;;;-141.22;100.00;65034.22;4914698;29;20794;-47
2022/12/21 07:42:00;;;;;;;48.13;32.70;;;;;;;-141.22;100.00;65034.22;4913934;29;20445;-47
2022/12/21 07:44:29;;;;;;;41.40;33.00;;;;;;;-141.22;100.00;65034.22;4914425;29;20437;-47
2022/12/21 07:46:57;;;;;;;40.60;31.07;;;;;;;-141.22;100.00;65034.22;4913716;29;20465;-46
2022/12/21 07:49:24;;;;;;;44.67;32.37;;;;;;;-141.22;100.00;65034.22;4914044;29;20446;-51
2022/12/21 07:51:52;;;;;;;48.37;33.60;;;;;;;-141.22;100.00;65034.22;4914228;29;20485;-48
2022/12/21 07:54:20;;;;;;;54.53;33.20;;;;;;;-141.22;100.00;65034.22;4914208;29;20937;-46
2022/12/21 07:56:48;;;;;;;44.30;31.50;;;;;;;-141.22;100.00;65034.22;4914022;29;20448;-46
2022/12/21 07:59:15;;;;;;;74.60;33.33;;;;;;;-141.22;100.00;65034.22;4914457;29;20438;-46
2022/12/21 08:01:44;;;;;;;34.27;30.63;;;;;;;-141.22;100.00;65034.22;4914330;29;20433;-48
2022/12/21 08:04:12;;;;;;;69.03;32.23;;;;;;;-141.22;100.00;65034.22;4916694;29;20496;-49
2022/12/21 08:06:40;;;;;;;52.30;31.13;;;;;;;-141.22;100.00;65034.22;4916907;29;20441;-47
2022/12/21 08:09:13;;;;;;;96.03;36.60;;;;;;;-141.22;100.00;65034.22;4918046;29;20853;-47
2022/12/21 08:11:41;;;;;;;137.77;41.90;;;;;;;-141.22;100.00;65034.22;4917600;29;20481;-48
2022/12/21 08:14:08;;;;;;;136.50;37.37;;;;;;;-141.22;100.00;65034.22;4916928;29;20560;-47
2022/12/21 08:16:36;;;;;;;45.30;31.53;;;;;;;-141.22;100.00;65034.22;4916124;29;20953;-48
2022/12/21 08:19:05;;;;;;;45.27;32.37;;;;;;;-141.22;100.00;65034.22;4917093;29;20440;-47
2022/12/21 08:21:33;;;;;;;59.17;33.20;;;;;;;-141.22;100.00;65034.22;4916754;29;20944;-47
2022/12/21 08:24:00;;;;;;;83.47;34.93;;;;;;;-141.22;100.00;65034.22;4916815;29;20809;-47
2022/12/21 08:26:28;;;;;;;51.37;31.50;;;;;;;-141.22;100.00;65034.22;4917353;29;20421;-50
2022/12/21 08:28:57;;;;;;;34.93;30.03;;;;;;;-141.22;100.00;65034.22;4915850;29;20489;-48
2022/12/21 08:31:28;;;;;;;39.67;32.07;;;;;;;-141.22;100.00;65034.22;4915965;29;20572;-50
2022/12/21 08:33:56;;;;;;;97.03;37.33;;;;;;;-141.22;100.00;65034.22;4916366;29;20470;-50
2022/12/21 08:36:25;;;;;;;73.57;33.97;;;;;;;-141.22;100.00;65034.22;4916769;29;20433;-47
2022/12/21 08:38:56;;;;;;;64.47;33.47;;;;;;;-141.22;100.00;65034.22;4915584;29;20461;-46
2022/12/21 08:41:36;;;;;;;74.13;33.17;;;;;;;-141.22;100.00;65034.22;4916192;29;20957;-48
2022/12/21 08:44:04;;;;;;;51.77;31.87;;;;;;;-141.22;100.00;65034.22;4914618;29;20885;-46
2022/12/21 08:46:32;;;;;;;53.20;32.20;;;;;;;-141.22;100.00;65034.22;4914256;29;20437;-47
2022/12/21 08:49:00;;;;;;;64.27;34.00;;;;;;;-141.22;100.00;65034.22;4916023;29;20438;-47
2022/12/21 08:51:29;;;;;;;87.43;36.93;;;;;;;-141.22;100.00;65034.22;4915305;29;20513;-49
2022/12/21 08:53:56;;;;;;;40.43;31.90;;;;;;;-141.22;100.00;65034.22;4915527;29;20461;-46
2022/12/21 08:56:25;;;;;;;47.27;31.80;;;;;;;-141.22;100.00;65034.22;4915630;29;20880;-47
2022/12/21 08:58:53;;;;;;;49.27;33.30;;;;;;;-141.22;100.00;65034.22;4914159;29;20929;-49
2022/12/21 09:01:22;;;;;;;95.87;35.93;;;;;;;-141.22;100.00;65034.22;4915782;29;20493;-47
2022/12/21 09:03:50;;;;;;;73.33;34.33;;;;;;;-141.22;100.00;65034.22;4915892;29;20449;-47
2022/12/21 09:06:17;;;;;;;61.50;34.10;;;;;;;-141.22;100.00;65034.22;4915595;29;20441;-46
2022/12/21 09:08:47;;;;;;;48.17;34.13;;;;;;;-141.22;100.00;65034.22;4915361;29;20568;-53
2022/12/21 09:11:17;;;;;;;75.83;33.20;;;;;;;-141.22;100.00;65034.22;4916484;29;20857;-47
2022/12/21 09:13:44;;;;;;;86.17;36.77;;;;;;;-141.22;100.00;65034.22;4914367;29;20481;-47
2022/12/21 09:16:13;;;;;;;38.70;32.00;;;;;;;-141.22;100.00;65034.22;4914458;29;20443;-48
2022/12/21 09:18:41;;;;;;;49.37;34.03;;;;;;;-141.22;100.00;65034.22;4915030;29;20465;-47
2022/12/21 09:21:09;;;;;;;57.83;34.10;;;;;;;-141.22;100.00;65034.22;4915828;29;20532;-48
2022/12/21 09:23:37;;;;;;;41.63;31.20;;;;;;;-141.22;100.00;65034.22;4915743;29;20461;-47
2022/12/21 09:26:07;;;;;;;55.40;31.97;;;;;;;-141.22;100.00;65034.22;4914778;29;20437;-47
2022/12/21 09:28:36;;;;;;;43.87;30.20;;;;;;;-141.22;100.00;65034.22;4914902;29;20993;-48
2022/12/21 09:31:09;;;;;;;43.23;31.43;;;;;;;-141.22;100.00;65034.22;4914053;29;20985;-51
2022/12/21 09:33:37;;;;;;;72.90;33.47;;;;;;;-141.22;100.00;65034.22;4913841;29;21048;-48
2022/12/21 09:36:06;;;;;;;59.03;33.73;;;;;;;-141.22;100.00;65034.22;4912952;29;20433;-47
2022/12/21 09:38:34;;;;;;;46.13;31.77;;;;;;;-141.22;100.00;65034.22;4912317;29;20857;-47
2022/12/21 09:41:02;;;;;;;69.43;34.47;;;;;;;-141.22;100.00;65034.22;4913566;29;20468;-51
2022/12/21 09:43:45;;;;;;;53.83;33.43;;;;;;;-141.22;100.00;65034.22;4914766;29;20962;-50
2022/12/21 09:46:15;;;;;;;39.30;30.20;;;;;;;-141.22;100.00;65034.22;4914697;29;20442;-51
2022/12/21 09:48:50;;;;;;;40.33;31.70;;;;;;;-141.22;100.00;65034.22;4931174;29;21074;-52
2022/12/21 09:51:22;;;;;;;54.23;32.67;;;;;;;-141.22;100.00;65034.22;4933720;29;20479;-49
2022/12/21 09:53:53;;;;;;;53.57;33.40;;;;;;;-141.22;100.00;65034.22;4934235;29;20484;-51
2022/12/21 09:56:23;;;;;;;43.73;31.80;;;;;;;-141.22;100.00;65034.22;4933397;29;20754;-50
2022/12/21 09:58:54;;;;;;;46.57;33.37;;;;;;;-141.22;100.00;65034.22;4932714;29;20480;-48
2022/12/21 10:01:37;;;;;;;37.93;32.27;;;;;;;-141.22;100.00;65034.22;4933767;29;20437;-47
2022/12/21 10:04:28;;;;;;;40.73;32.57;;;;;;;-141.22;100.00;65034.22;4931221;29;20460;-47
2022/12/21 10:07:40;;;;;;;36.33;32.70;;;;;;;-141.22;100.00;65034.22;4930681;29;20460;-49
2022/12/21 10:10:19;;;;;;;37.80;34.00;;;;;;;-141.22;100.00;65034.22;4924698;29;20436;-48
2022/12/21 10:12:56;;;;;;;43.13;33.40;;;;;;;-141.22;100.00;65034.22;4932430;29;20582;-48
2022/12/21 10:15:32;;;;;;;36.80;32.03;;;;;;;-141.22;100.00;65034.22;4933448;29;20436;-48
2022/12/21 10:18:09;;;;;;;35.00;31.67;;;;;;;-141.22;100.00;65034.22;4932223;29;20524;-48
2022/12/21 10:20:48;;;;;;;35.73;32.20;;;;;;;-141.22;100.00;65034.22;4932625;29;20440;-50
2022/12/21 10:23:21;;;;;;;35.57;32.20;;;;;;;-141.22;100.00;65034.22;4932654;29;20452;-47
2022/12/21 10:25:53;;;;;;;36.03;32.83;;;;;;;-141.22;100.00;65034.22;4932719;29;20448;-49
2022/12/21 10:28:31;;;;;;;35.60;31.97;;;;;;;-141.22;100.00;65034.22;4931664;28;20464;-47
2022/12/21 10:31:05;;;;;;;38.95;34.70;;;;;;;-141.22;100.00;65034.22;4933024;29;20503;-49
2022/12/21 10:33:36;;;;;;;42.50;37.87;;;;;;;-141.22;100.00;65034.22;4930934;29;20478;-52
2022/12/21 10:36:05;;;;;;;38.53;34.80;;;;;;;-141.22;100.00;65034.22;4931968;29;20425;-48
2022/12/21 10:38:34;;;;;;;56.93;39.63;;;;;;;-141.22;100.00;65034.22;4931976;29;20493;-47
2022/12/21 10:41:07;;;;;;;45.47;35.60;;;;;;;-141.22;100.00;65034.22;4931375;29;20518;-47
2022/12/21 10:43:39;;;;;;;50.03;35.20;;;;;;;-141.22;100.00;65034.22;4931815;29;20460;-47
2022/12/21 10:46:08;;;;;;;58.70;35.17;;;;;;;-141.22;100.00;65034.22;4932292;29;20436;-49
2022/12/21 10:48:36;;;;;;;36.57;33.13;;;;;;;-141.22;100.00;65034.22;4930542;29;20512;-49
2022/12/21 10:51:15;;;;;;;35.83;32.53;;;;;;;-141.22;100.00;65034.22;4931963;29;20441;-47
2022/12/21 10:53:57;;;;;;;38.83;34.87;;;;;;;-141.22;100.00;65034.22;4932547;29;20472;-53
2022/12/21 10:56:26;;;;;;;45.77;34.90;;;;;;;-141.22;100.00;65034.22;4932532;29;20429;-49
2022/12/21 10:58:54;;;;;;;50.73;34.87;;;;;;;-141.22;100.00;65034.22;4928823;29;21019;-49
2022/12/21 11:01:28;;;;;;;43.80;35.33;;;;;;;-141.22;100.00;65034.22;4932240;29;20437;-47
2022/12/21 11:04:13;;;;;;;52.20;37.63;;;;;;;-141.22;100.00;65034.22;4931992;29;20464;-47
2022/12/21 11:06:56;;;;;;;41.83;37.40;;;;;;;-141.22;100.00;65034.22;4931975;29;20440;-47
2022/12/21 11:09:29;;;;;;;50.83;36.30;;;;;;;-141.22;100.00;65034.22;4932240;29;20448;-47
2022/12/21 11:11:57;;;;;;;46.73;35.33;;;;;;;-141.22;100.00;65034.22;4932337;29;20822;-47
2022/12/21 11:14:24;;;;;;;49.20;36.17;;;;;;;-141.22;100.00;65034.22;4931952;29;20441;-50
2022/12/21 11:17:01;;;;;;;40.93;34.53;;;;;;;-141.22;100.00;65034.22;4931446;29;20956;-47